Time,TemperatureF,DewpointF,PressureIn,WindDirection,WindDirectionDegrees,WindSpeedMPH,WindSpeedGustMPH,Humidity,HourlyPrecipIn,Conditions,Clouds,dailyrainin,SoftwareType,DateUTC
2014-01-08 00:00:00,51.3,49.1,30.28,NNE,23,0.0,-999.0,92,0.08,,,0.39,Wunderground v.1.15,2014-01-08 05:00:00,
2014-01-08 00:05:00,51.3,49.1,30.28,NNE,23,0.0,-999.0,92,0.08,,,0.39,Wunderground v.1.15,2014-01-08 05:05:00,
2014-01-08 00:10:00,51.2,49.0,30.28,East,90,0.0,-999.0,92,0.09,,,0.39,Wunderground v.1.15,2014-01-08 05:10:00,
2014-01-08 00:15:00,51.3,49.3,30.28,East,90,0.0,-999.0,93,0.08,,,0.39,Wunderground v.1.15,2014-01-08 05:15:00,
2014-01-08 00:20:00,51.3,49.3,30.28,East,90,0.0,-999.0,93,0.07,,,0.39,Wunderground v.1.15,2014-01-08 05:20:00,
2014-01-08 00:25:00,51.3,49.3,30.28,East,90,1.0,-999.0,93,0.06,,,0.39,Wunderground v.1.15,2014-01-08 05:25:00,
2014-01-08 00:30:00,51.2,49.2,30.28,NNE,23,0.0,-999.0,93,0.05,,,0.39,Wunderground v.1.15,2014-01-08 05:30:00,
2014-01-08 00:35:00,51.3,49.3,30.27,NNE,23,0.0,-999.0,93,0.04,,,0.39,Wunderground v.1.15,2014-01-08 05:35:00,
2014-01-08 00:40:00,51.4,49.4,30.27,East,90,1.0,-999.0,93,0.05,,,0.39,Wunderground v.1.15,2014-01-08 05:40:00,
2014-01-08 00:45:00,51.3,49.3,30.27,East,90,1.0,-999.0,93,0.04,,,0.39,Wunderground v.1.15,2014-01-08 05:45:00,
2014-01-08 00:50:00,51.2,49.2,30.26,East,90,1.0,-999.0,93,0.05,,,0.39,Wunderground v.1.15,2014-01-08 05:50:00,
2014-01-08 00:55:00,51.2,49.2,30.26,East,90,1.0,-999.0,93,0.05,,,0.39,Wunderground v.1.15,2014-01-08 05:55:00,
2014-01-08 01:00:00,51.2,49.2,30.26,East,90,1.0,-999.0,93,0.04,,,0.39,Wunderground v.1.15,2014-01-08 06:00:00,
2014-01-08 01:05:00,51.3,49.6,30.26,East,90,0.0,-999.0,94,0.04,,,0.39,Wunderground v.1.15,2014-01-08 06:05:00,
2014-01-08 01:10:00,51.3,49.6,30.26,NE,45,0.0,-999.0,94,0.03,,,0.39,Wunderground v.1.15,2014-01-08 06:10:00,
2014-01-08 01:15:00,51.4,49.7,30.26,NNE,23,0.0,-999.0,94,0.03,,,0.39,Wunderground v.1.15,2014-01-08 06:15:00,
2014-01-08 01:20:00,51.5,49.8,30.26,East,90,0.0,-999.0,94,0.03,,,0.39,Wunderground v.1.15,2014-01-08 06:20:00,
2014-01-08 01:25:00,51.6,49.9,30.26,NE,45,0.0,-999.0,94,0.03,,,0.39,Wunderground v.1.15,2014-01-08 06:25:00,
2014-01-08 01:30:00,51.6,49.9,30.26,East,90,1.0,-999.0,94,0.03,,,0.39,Wunderground v.1.15,2014-01-08 06:30:00,
2014-01-08 01:35:00,51.6,49.9,30.26,East,90,1.0,-999.0,94,0.04,,,0.39,Wunderground v.1.15,2014-01-08 06:35:00,
2014-01-08 01:40:00,51.6,49.9,30.25,East,90,1.0,-999.0,94,0.03,,,0.39,Wunderground v.1.15,2014-01-08 06:40:00,
2014-01-08 01:45:00,51.7,50.0,30.25,North,0,0.0,-999.0,94,0.03,,,0.39,Wunderground v.1.15,2014-01-08 06:45:00,
2014-01-08 01:50:00,51.6,49.9,30.26,North,0,0.0,-999.0,94,0.02,,,0.39,Wunderground v.1.15,2014-01-08 06:50:00,
2014-01-08 01:55:00,51.8,50.4,30.26,North,0,0.0,-999.0,95,0.01,,,0.39,Wunderground v.1.15,2014-01-08 06:55:00,
2014-01-08 02:00:00,52.1,50.7,30.25,ENE,68,0.0,-999.0,95,0.01,,,0.39,Wunderground v.1.15,2014-01-08 07:00:00,
2014-01-08 02:05:00,52.3,50.9,30.26,East,90,0.0,-999.0,95,0.01,,,0.39,Wunderground v.1.15,2014-01-08 07:05:00,
2014-01-08 02:10:00,52.3,50.9,30.25,East,90,0.0,-999.0,95,0.01,,,0.39,Wunderground v.1.15,2014-01-08 07:10:00,
2014-01-08 02:15:00,52.2,50.5,30.25,East,90,1.0,-999.0,94,0.01,,,0.39,Wunderground v.1.15,2014-01-08 07:15:00,
2014-01-08 02:20:00,52.2,50.8,30.25,East,90,0.0,-999.0,95,0.01,,,0.39,Wunderground v.1.15,2014-01-08 07:20:00,
2014-01-08 02:25:00,52.2,50.5,30.25,ENE,68,0.0,-999.0,94,0.01,,,0.39,Wunderground v.1.15,2014-01-08 07:25:00,
2014-01-08 02:30:00,52.2,50.8,30.25,ENE,68,0.0,-999.0,95,0.01,,,0.39,Wunderground v.1.15,2014-01-08 07:30:00,
2014-01-08 02:35:00,52.3,50.9,30.25,East,90,1.0,-999.0,95,0.00,,,0.39,Wunderground v.1.15,2014-01-08 07:35:00,
2014-01-08 02:40:00,52.4,51.0,30.24,East,90,0.0,-999.0,95,0.00,,,0.39,Wunderground v.1.15,2014-01-08 07:40:00,
2014-01-08 02:45:00,52.4,51.0,30.24,East,90,0.0,-999.0,95,0.00,,,0.39,Wunderground v.1.15,2014-01-08 07:45:00,
2014-01-08 02:50:00,52.4,51.0,30.24,East,90,0.0,-999.0,95,0.00,,,0.39,Wunderground v.1.15,2014-01-08 07:50:00,
2014-01-08 02:55:00,52.7,51.3,30.24,East,90,1.0,-999.0,95,0.00,,,0.39,Wunderground v.1.15,2014-01-08 07:55:00,
2014-01-08 03:00:00,52.9,51.5,30.24,North,0,0.0,-999.0,95,0.00,,,0.39,Wunderground v.1.15,2014-01-08 08:00:00,
2014-01-08 03:05:00,53.2,51.8,30.24,North,0,1.0,-999.0,95,0.00,,,0.39,Wunderground v.1.15,2014-01-08 08:05:00,
2014-01-08 03:10:00,53.6,52.5,30.24,North,0,2.0,-999.0,96,0.00,,,0.39,Wunderground v.1.15,2014-01-08 08:10:00,
2014-01-08 03:15:00,54.0,52.6,30.24,North,0,1.0,-999.0,95,0.00,,,0.39,Wunderground v.1.15,2014-01-08 08:15:00,
2014-01-08 03:20:00,54.0,52.6,30.24,North,0,1.0,-999.0,95,0.00,,,0.39,Wunderground v.1.15,2014-01-08 08:20:00,
2014-01-08 03:25:00,54.2,52.8,30.24,NNE,23,0.0,-999.0,95,0.00,,,0.39,Wunderground v.1.15,2014-01-08 08:25:00,
2014-01-08 03:30:00,54.3,52.9,30.24,North,0,0.0,-999.0,95,0.00,,,0.39,Wunderground v.1.15,2014-01-08 08:30:00,
2014-01-08 03:35:00,54.3,52.9,30.24,NE,45,0.0,-999.0,95,0.00,,,0.39,Wunderground v.1.15,2014-01-08 08:35:00,
2014-01-08 03:40:00,54.4,53.0,30.24,East,90,0.0,-999.0,95,0.00,,,0.39,Wunderground v.1.15,2014-01-08 08:40:00,
2014-01-08 03:45:00,54.6,53.2,30.24,North,0,0.0,-999.0,95,0.00,,,0.39,Wunderground v.1.15,2014-01-08 08:45:00,
2014-01-08 03:50:00,54.7,53.3,30.24,NE,45,0.0,-999.0,95,0.00,,,0.39,Wunderground v.1.15,2014-01-08 08:50:00,
2014-01-08 03:55:00,54.8,53.4,30.24,NNE,23,0.0,-999.0,95,0.00,,,0.39,Wunderground v.1.15,2014-01-08 08:55:00,
2014-01-08 04:00:00,55.1,54.0,30.24,North,0,0.0,-999.0,96,0.00,,,0.39,Wunderground v.1.15,2014-01-08 09:00:00,
2014-01-08 04:05:00,55.4,54.3,30.24,East,90,0.0,-999.0,96,0.00,,,0.39,Wunderground v.1.15,2014-01-08 09:05:00,
2014-01-08 04:10:00,55.7,54.6,30.23,East,90,0.0,-999.0,96,0.00,,,0.39,Wunderground v.1.15,2014-01-08 09:10:00,
2014-01-08 04:15:00,56.1,55.0,30.23,East,90,0.0,-999.0,96,0.00,,,0.39,Wunderground v.1.15,2014-01-08 09:15:00,
2014-01-08 04:20:00,56.3,55.2,30.22,East,90,1.0,-999.0,96,0.00,,,0.39,Wunderground v.1.15,2014-01-08 09:20:00,
2014-01-08 04:25:00,58.8,58.2,30.22,East,90,4.0,-999.0,98,0.00,,,0.39,Wunderground v.1.15,2014-01-08 09:25:00,
2014-01-08 04:30:00,61.7,61.1,30.22,East,90,6.0,-999.0,98,0.00,,,0.39,Wunderground v.1.15,2014-01-08 09:30:00,
2014-01-08 04:35:00,62.8,61.6,30.22,ESE,113,6.0,-999.0,96,0.00,,,0.39,Wunderground v.1.15,2014-01-08 09:35:00,
2014-01-08 04:40:00,63.5,61.7,30.22,East,90,5.0,-999.0,94,0.00,,,0.39,Wunderground v.1.15,2014-01-08 09:40:00,
2014-01-08 04:45:00,64.0,61.6,30.22,East,90,5.0,-999.0,92,0.00,,,0.39,Wunderground v.1.15,2014-01-08 09:45:00,
2014-01-08 04:50:00,64.5,61.5,30.22,East,90,6.0,-999.0,90,0.00,,,0.39,Wunderground v.1.15,2014-01-08 09:50:00,
2014-01-08 04:55:00,64.9,61.9,30.22,East,90,5.0,-999.0,90,0.00,,,0.39,Wunderground v.1.15,2014-01-08 09:55:00,
2014-01-08 05:00:00,65.1,61.8,30.22,East,90,4.0,-999.0,89,0.00,,,0.39,Wunderground v.1.15,2014-01-08 10:00:00,
2014-01-08 05:05:00,65.0,61.7,30.22,ESE,113,4.0,-999.0,89,0.01,,,0.39,Wunderground v.1.15,2014-01-08 10:05:00,
2014-01-08 05:10:00,64.9,61.6,30.22,ESE,113,4.0,-999.0,89,0.01,,,0.39,Wunderground v.1.15,2014-01-08 10:10:00,
2014-01-08 05:15:00,64.8,61.8,30.22,East,90,5.0,-999.0,90,0.01,,,0.39,Wunderground v.1.15,2014-01-08 10:15:00,
2014-01-08 05:20:00,64.7,61.7,30.22,East,90,5.0,-999.0,90,0.02,,,0.39,Wunderground v.1.15,2014-01-08 10:20:00,
2014-01-08 05:25:00,64.7,61.7,30.22,East,90,4.0,-999.0,90,0.02,,,0.39,Wunderground v.1.15,2014-01-08 10:25:00,
2014-01-08 05:30:00,64.6,61.6,30.21,SE,135,4.0,-999.0,90,0.02,,,0.39,Wunderground v.1.15,2014-01-08 10:30:00,
2014-01-08 05:35:00,64.7,61.7,30.21,ESE,113,5.0,-999.0,90,0.02,,,0.39,Wunderground v.1.15,2014-01-08 10:35:00,
2014-01-08 05:40:00,64.8,61.8,30.21,SE,135,6.0,-999.0,90,0.02,,,0.39,Wunderground v.1.15,2014-01-08 10:40:00,
2014-01-08 05:45:00,65.1,61.8,30.21,ESE,113,6.0,-999.0,89,0.02,,,0.39,Wunderground v.1.15,2014-01-08 10:45:00,
2014-01-08 05:50:00,65.2,61.9,30.21,East,90,5.0,-999.0,89,0.02,,,0.39,Wunderground v.1.15,2014-01-08 10:50:00,
2014-01-08 05:55:00,65.4,62.1,30.21,ESE,113,6.0,-999.0,89,0.02,,,0.39,Wunderground v.1.15,2014-01-08 10:55:00,
2014-01-08 06:00:00,65.5,61.9,30.22,East,90,6.0,-999.0,88,0.02,,,0.39,Wunderground v.1.15,2014-01-08 11:00:00,
2014-01-08 06:05:00,65.7,62.4,30.22,East,90,6.0,-999.0,89,0.01,,,0.39,Wunderground v.1.15,2014-01-08 11:05:00,
2014-01-08 06:10:00,65.6,61.9,30.22,East,90,7.0,-999.0,88,0.01,,,0.39,Wunderground v.1.15,2014-01-08 11:10:00,
2014-01-08 06:15:00,65.6,61.9,30.22,East,90,5.0,-999.0,88,0.01,,,0.39,Wunderground v.1.15,2014-01-08 11:15:00,
2014-01-08 06:20:00,65.6,61.9,30.22,East,90,7.0,-999.0,88,0.00,,,0.39,Wunderground v.1.15,2014-01-08 11:20:00,
2014-01-08 06:25:00,65.8,62.1,30.22,East,90,6.0,-999.0,88,0.00,,,0.39,Wunderground v.1.15,2014-01-08 11:25:00,
2014-01-08 06:30:00,65.8,62.1,30.21,East,90,6.0,-999.0,88,0.00,,,0.39,Wunderground v.1.15,2014-01-08 11:30:00,
2014-01-08 06:35:00,66.0,62.3,30.21,East,90,6.0,-999.0,88,0.00,,,0.39,Wunderground v.1.15,2014-01-08 11:35:00,
2014-01-08 06:40:00,66.0,62.3,30.22,East,90,7.0,-999.0,88,0.00,,,0.39,Wunderground v.1.15,2014-01-08 11:40:00,
2014-01-08 06:45:00,66.1,62.1,30.22,East,90,7.0,-999.0,87,0.00,,,0.39,Wunderground v.1.15,2014-01-08 11:45:00,
2014-01-08 06:50:00,66.2,62.2,30.23,East,90,8.0,-999.0,87,0.00,,,0.39,Wunderground v.1.15,2014-01-08 11:50:00,
2014-01-08 06:55:00,66.2,61.9,30.23,East,90,6.0,-999.0,86,0.00,,,0.39,Wunderground v.1.15,2014-01-08 11:55:00,
2014-01-08 07:00:00,66.3,62.0,30.24,ENE,68,6.0,-999.0,86,0.00,,,0.39,Wunderground v.1.15,2014-01-08 12:00:00,
2014-01-08 07:05:00,66.4,62.1,30.24,East,90,7.0,-999.0,86,0.00,,,0.39,Wunderground v.1.15,2014-01-08 12:05:00,
2014-01-08 07:10:00,66.5,62.2,30.24,East,90,6.0,-999.0,86,0.00,,,0.39,Wunderground v.1.15,2014-01-08 12:10:00,
2014-01-08 07:15:00,66.6,62.3,30.24,East,90,5.0,-999.0,86,0.00,,,0.39,Wunderground v.1.15,2014-01-08 12:15:00,
2014-01-08 07:20:00,66.6,62.3,30.24,East,90,4.0,-999.0,86,0.00,,,0.39,Wunderground v.1.15,2014-01-08 12:20:00,
2014-01-08 07:25:00,66.6,62.3,30.24,ENE,68,7.0,-999.0,86,0.00,,,0.39,Wunderground v.1.15,2014-01-08 12:25:00,
2014-01-08 07:30:00,66.4,62.4,30.25,ENE,68,7.0,-999.0,87,0.00,,,0.39,Wunderground v.1.15,2014-01-08 12:30:00,
2014-01-08 07:35:00,66.0,62.7,30.25,ENE,68,6.0,-999.0,89,0.00,,,0.39,Wunderground v.1.15,2014-01-08 12:35:00,
2014-01-08 07:40:00,65.9,62.6,30.25,East,90,8.0,-999.0,89,0.00,,,0.39,Wunderground v.1.15,2014-01-08 12:40:00,
2014-01-08 07:45:00,65.8,62.8,30.25,ENE,68,5.0,-999.0,90,0.00,,,0.39,Wunderground v.1.15,2014-01-08 12:45:00,
2014-01-08 07:50:00,65.7,62.7,30.26,ENE,68,8.0,-999.0,90,0.00,,,0.39,Wunderground v.1.15,2014-01-08 12:50:00,
2014-01-08 07:55:00,65.5,62.5,30.26,ENE,68,7.0,-999.0,90,0.00,,,0.39,Wunderground v.1.15,2014-01-08 12:55:00,
2014-01-08 08:00:00,65.4,62.7,30.27,ENE,68,7.0,-999.0,91,0.01,,,0.39,Wunderground v.1.15,2014-01-08 13:00:00,
2014-01-08 08:05:00,65.4,62.7,30.27,ENE,68,7.0,-999.0,91,0.03,,,0.39,Wunderground v.1.15,2014-01-08 13:05:00,
2014-01-08 08:10:00,65.4,63.0,30.27,East,90,4.0,-999.0,92,0.03,,,0.39,Wunderground v.1.15,2014-01-08 13:10:00,
2014-01-08 08:15:00,65.2,62.8,30.28,ENE,68,5.0,-999.0,92,0.03,,,0.39,Wunderground v.1.15,2014-01-08 13:15:00,
2014-01-08 08:20:00,65.3,62.9,30.28,ENE,68,6.0,-999.0,92,0.03,,,0.39,Wunderground v.1.15,2014-01-08 13:20:00,
2014-01-08 08:25:00,65.6,63.2,30.28,East,90,5.0,-999.0,92,0.03,,,0.39,Wunderground v.1.15,2014-01-08 13:25:00,
2014-01-08 08:30:00,65.5,63.1,30.28,East,90,5.0,-999.0,92,0.03,,,0.39,Wunderground v.1.15,2014-01-08 13:30:00,
2014-01-08 08:35:00,65.6,63.2,30.28,ENE,68,6.0,-999.0,92,0.03,,,0.39,Wunderground v.1.15,2014-01-08 13:35:00,
2014-01-08 08:40:00,65.6,63.2,30.28,ENE,68,6.0,-999.0,92,0.03,,,0.39,Wunderground v.1.15,2014-01-08 13:40:00,
2014-01-08 08:45:00,65.7,63.3,30.28,ESE,113,5.0,-999.0,92,0.04,,,0.39,Wunderground v.1.15,2014-01-08 13:45:00,
2014-01-08 08:50:00,65.9,63.5,30.28,East,90,7.0,-999.0,92,0.04,,,0.39,Wunderground v.1.15,2014-01-08 13:50:00,
2014-01-08 08:55:00,65.8,63.4,30.28,East,90,7.0,-999.0,92,0.04,,,0.39,Wunderground v.1.15,2014-01-08 13:55:00,
2014-01-08 09:00:00,65.9,63.5,30.28,ENE,68,7.0,-999.0,92,0.03,,,0.39,Wunderground v.1.15,2014-01-08 14:00:00,
2014-01-08 09:05:00,66.0,63.6,30.29,ENE,68,7.0,-999.0,92,0.01,,,0.39,Wunderground v.1.15,2014-01-08 14:05:00,
2014-01-08 09:10:00,66.0,63.6,30.29,ENE,68,6.0,-999.0,92,0.01,,,0.39,Wunderground v.1.15,2014-01-08 14:10:00,
2014-01-08 09:15:00,66.1,63.7,30.29,ENE,68,6.0,-999.0,92,0.01,,,0.39,Wunderground v.1.15,2014-01-08 14:15:00,
2014-01-08 09:20:00,66.1,63.4,30.29,East,90,6.0,-999.0,91,0.01,,,0.39,Wunderground v.1.15,2014-01-08 14:20:00,
2014-01-08 09:25:00,66.3,63.6,30.29,East,90,5.0,-999.0,91,0.01,,,0.39,Wunderground v.1.15,2014-01-08 14:25:00,
2014-01-08 09:30:00,66.9,64.2,30.29,ENE,68,4.0,-999.0,91,0.01,,,0.39,Wunderground v.1.15,2014-01-08 14:30:00,
2014-01-08 09:35:00,67.2,64.2,30.30,ENE,68,5.0,-999.0,90,0.01,,,0.39,Wunderground v.1.15,2014-01-08 14:35:00,
2014-01-08 09:40:00,67.1,64.1,30.30,ENE,68,7.0,-999.0,90,0.01,,,0.39,Wunderground v.1.15,2014-01-08 14:40:00,
2014-01-08 09:45:00,67.1,64.1,30.30,ENE,68,6.0,-999.0,90,0.00,,,0.39,Wunderground v.1.15,2014-01-08 14:45:00,
2014-01-08 09:50:00,66.8,64.1,30.30,ENE,68,6.0,-999.0,91,0.00,,,0.39,Wunderground v.1.15,2014-01-08 14:50:00,
2014-01-08 09:55:00,66.8,64.1,30.31,ENE,68,6.0,-999.0,91,0.00,,,0.39,Wunderground v.1.15,2014-01-08 14:55:00,
2014-01-08 10:00:00,66.7,63.7,30.31,ENE,68,5.0,-999.0,90,0.00,,,0.39,Wunderground v.1.15,2014-01-08 15:00:00,
2014-01-08 10:05:00,66.6,63.6,30.31,ENE,68,6.0,-999.0,90,0.00,,,0.39,Wunderground v.1.15,2014-01-08 15:05:00,
2014-01-08 10:10:00,66.7,64.0,30.31,ENE,68,6.0,-999.0,91,0.00,,,0.39,Wunderground v.1.15,2014-01-08 15:10:00,
2014-01-08 10:15:00,66.6,63.9,30.31,ENE,68,8.0,-999.0,91,0.00,,,0.39,Wunderground v.1.15,2014-01-08 15:15:00,
2014-01-08 10:20:00,66.4,63.7,30.31,ENE,68,6.0,-999.0,91,0.01,,,0.39,Wunderground v.1.15,2014-01-08 15:20:00,
2014-01-08 10:25:00,66.2,63.8,30.31,ENE,68,5.0,-999.0,92,0.02,,,0.39,Wunderground v.1.15,2014-01-08 15:25:00,
2014-01-08 10:30:00,66.0,63.9,30.30,ENE,68,7.0,-999.0,93,0.02,,,0.39,Wunderground v.1.15,2014-01-08 15:30:00,
2014-01-08 10:35:00,66.0,63.9,30.30,ENE,68,6.0,-999.0,93,0.03,,,0.39,Wunderground v.1.15,2014-01-08 15:35:00,
2014-01-08 10:40:00,66.1,64.0,30.30,ENE,68,6.0,-999.0,93,0.03,,,0.39,Wunderground v.1.15,2014-01-08 15:40:00,
2014-01-08 10:45:00,66.1,64.3,30.30,ENE,68,6.0,-999.0,94,0.03,,,0.39,Wunderground v.1.15,2014-01-08 15:45:00,
2014-01-08 10:50:00,66.3,64.5,30.30,ENE,68,6.0,-999.0,94,0.03,,,0.39,Wunderground v.1.15,2014-01-08 15:50:00,
2014-01-08 10:55:00,66.2,64.4,30.29,ENE,68,5.0,-999.0,94,0.03,,,0.39,Wunderground v.1.15,2014-01-08 15:55:00,
2014-01-08 11:00:00,66.3,64.5,30.29,ENE,68,6.0,-999.0,94,0.04,,,0.39,Wunderground v.1.15,2014-01-08 16:00:00,
2014-01-08 11:05:00,66.3,64.5,30.29,ENE,68,5.0,-999.0,94,0.04,,,0.39,Wunderground v.1.15,2014-01-08 16:05:00,
2014-01-08 11:10:00,66.3,64.5,30.29,ENE,68,6.0,-999.0,94,0.04,,,0.39,Wunderground v.1.15,2014-01-08 16:10:00,
2014-01-08 11:15:00,66.4,64.6,30.29,ENE,68,5.0,-999.0,94,0.04,,,0.39,Wunderground v.1.15,2014-01-08 16:15:00,
2014-01-08 11:20:00,66.3,64.5,30.28,ENE,68,6.0,-999.0,94,0.03,,,0.39,Wunderground v.1.15,2014-01-08 16:20:00,
2014-01-08 11:25:00,66.1,64.3,30.28,ENE,68,6.0,-999.0,94,0.02,,,0.39,Wunderground v.1.15,2014-01-08 16:25:00,
2014-01-08 11:30:00,66.5,64.7,30.28,ENE,68,6.0,-999.0,94,0.02,,,0.39,Wunderground v.1.15,2014-01-08 16:30:00,
2014-01-08 11:35:00,66.6,64.5,30.27,ENE,68,8.0,-999.0,93,0.01,,,0.39,Wunderground v.1.15,2014-01-08 16:35:00,
2014-01-08 11:40:00,66.6,64.8,30.28,ENE,68,6.0,-999.0,94,0.01,,,0.39,Wunderground v.1.15,2014-01-08 16:40:00,
2014-01-08 11:45:00,66.5,64.7,30.28,ENE,68,4.0,-999.0,94,0.01,,,0.39,Wunderground v.1.15,2014-01-08 16:45:00,
2014-01-08 11:50:00,66.5,64.7,30.27,ENE,68,7.0,-999.0,94,0.02,,,0.39,Wunderground v.1.15,2014-01-08 16:50:00,
2014-01-08 11:55:00,66.3,64.5,30.26,ENE,68,9.0,-999.0,94,0.03,,,0.39,Wunderground v.1.15,2014-01-08 16:55:00,
2014-01-08 12:00:00,66.3,64.5,30.26,ENE,68,6.0,-999.0,94,0.02,,,0.39,Wunderground v.1.15,2014-01-08 17:00:00,
2014-01-08 12:05:00,66.3,64.5,30.26,ENE,68,7.0,-999.0,94,0.03,,,0.39,Wunderground v.1.15,2014-01-08 17:05:00,
2014-01-08 12:10:00,66.2,64.4,30.26,ENE,68,7.0,-999.0,94,0.03,,,0.39,Wunderground v.1.15,2014-01-08 17:10:00,
2014-01-08 12:15:00,66.3,64.5,30.26,ENE,68,9.0,-999.0,94,0.04,,,0.39,Wunderground v.1.15,2014-01-08 17:15:00,
2014-01-08 12:20:00,66.5,64.7,30.26,ENE,68,7.0,-999.0,94,0.04,,,0.39,Wunderground v.1.15,2014-01-08 17:20:00,
2014-01-08 12:25:00,66.6,64.8,30.25,ENE,68,8.0,-999.0,94,0.05,,,0.39,Wunderground v.1.15,2014-01-08 17:25:00,
2014-01-08 12:30:00,66.7,64.9,30.24,ENE,68,6.0,-999.0,94,0.05,,,0.39,Wunderground v.1.15,2014-01-08 17:30:00,
2014-01-08 12:35:00,66.8,64.7,30.24,ENE,68,9.0,-999.0,93,0.06,,,0.39,Wunderground v.1.15,2014-01-08 17:35:00,
2014-01-08 12:40:00,66.8,64.7,30.24,ENE,68,7.0,-999.0,93,0.06,,,0.39,Wunderground v.1.15,2014-01-08 17:40:00,
2014-01-08 12:45:00,66.7,64.6,30.24,ENE,68,10.0,-999.0,93,0.06,,,0.39,Wunderground v.1.15,2014-01-08 17:45:00,
2014-01-08 12:50:00,66.6,64.5,30.24,ENE,68,9.0,-999.0,93,0.05,,,0.39,Wunderground v.1.15,2014-01-08 17:50:00,
2014-01-08 12:55:00,66.6,64.5,30.24,ENE,68,8.0,-999.0,93,0.04,,,0.39,Wunderground v.1.15,2014-01-08 17:55:00,
2014-01-08 13:00:00,66.5,64.4,30.24,ENE,68,10.0,-999.0,93,0.05,,,0.39,Wunderground v.1.15,2014-01-08 18:00:00,
2014-01-08 13:05:00,66.5,64.4,30.24,ENE,68,10.0,-999.0,93,0.04,,,0.39,Wunderground v.1.15,2014-01-08 18:05:00,
2014-01-08 13:10:00,66.5,64.4,30.23,ENE,68,8.0,-999.0,93,0.04,,,0.39,Wunderground v.1.15,2014-01-08 18:10:00,
2014-01-08 13:15:00,66.5,64.4,30.23,ENE,68,10.0,-999.0,93,0.05,,,0.39,Wunderground v.1.15,2014-01-08 18:15:00,
2014-01-08 13:20:00,66.5,64.4,30.22,ENE,68,11.0,-999.0,93,0.05,,,0.39,Wunderground v.1.15,2014-01-08 18:20:00,
2014-01-08 13:25:00,66.5,64.4,30.23,ENE,68,11.0,-999.0,93,0.05,,,0.39,Wunderground v.1.15,2014-01-08 18:25:00,
2014-01-08 13:30:00,66.4,64.3,30.22,ENE,68,9.0,-999.0,93,0.05,,,0.39,Wunderground v.1.15,2014-01-08 18:30:00,
2014-01-08 13:35:00,66.6,64.5,30.22,ENE,68,10.0,-999.0,93,0.05,,,0.39,Wunderground v.1.15,2014-01-08 18:35:00,
2014-01-08 13:40:00,66.6,64.8,30.22,ENE,68,9.0,-999.0,94,0.07,,,0.39,Wunderground v.1.15,2014-01-08 18:40:00,
2014-01-08 13:45:00,66.5,64.7,30.22,ENE,68,9.0,-999.0,94,0.08,,,0.39,Wunderground v.1.15,2014-01-08 18:45:00,
2014-01-08 13:50:00,66.5,64.7,30.22,ENE,68,10.0,-999.0,94,0.08,,,0.39,Wunderground v.1.15,2014-01-08 18:50:00,
2014-01-08 13:55:00,66.6,64.8,30.22,ENE,68,8.0,-999.0,94,0.08,,,0.39,Wunderground v.1.15,2014-01-08 18:55:00,
2014-01-08 14:00:00,66.6,64.8,30.22,ENE,68,7.0,-999.0,94,0.07,,,0.39,Wunderground v.1.15,2014-01-08 19:00:00,
2014-01-08 14:05:00,66.5,64.7,30.22,ENE,68,9.0,-999.0,94,0.08,,,0.39,Wunderground v.1.15,2014-01-08 19:05:00,
2014-01-08 14:10:00,66.5,64.7,30.22,ENE,68,8.0,-999.0,94,0.08,,,0.39,Wunderground v.1.15,2014-01-08 19:10:00,
2014-01-08 14:15:00,66.5,64.7,30.22,ENE,68,5.0,-999.0,94,0.06,,,0.39,Wunderground v.1.15,2014-01-08 19:15:00,
2014-01-08 14:20:00,66.4,64.6,30.22,ENE,68,9.0,-999.0,94,0.06,,,0.39,Wunderground v.1.15,2014-01-08 19:20:00,
2014-01-08 14:25:00,66.6,65.1,30.22,ENE,68,6.0,-999.0,95,0.05,,,0.39,Wunderground v.1.15,2014-01-08 19:25:00,
2014-01-08 14:30:00,66.6,64.8,30.22,ENE,68,8.0,-999.0,94,0.05,,,0.39,Wunderground v.1.15,2014-01-08 19:30:00,
2014-01-08 14:35:00,66.6,65.1,30.22,ENE,68,6.0,-999.0,95,0.04,,,0.39,Wunderground v.1.15,2014-01-08 19:35:00,
2014-01-08 14:40:00,66.6,64.8,30.22,ENE,68,9.0,-999.0,94,0.03,,,0.39,Wunderground v.1.15,2014-01-08 19:40:00,
2014-01-08 14:45:00,66.6,64.8,30.22,ENE,68,6.0,-999.0,94,0.02,,,0.39,Wunderground v.1.15,2014-01-08 19:45:00,
2014-01-08 14:50:00,66.8,65.0,30.22,ENE,68,6.0,-999.0,94,0.02,,,0.39,Wunderground v.1.15,2014-01-08 19:50:00,
2014-01-08 14:55:00,66.6,64.8,30.22,ENE,68,7.0,-999.0,94,0.02,,,0.39,Wunderground v.1.15,2014-01-08 19:55:00,
2014-01-08 15:00:00,66.8,65.0,30.22,ENE,68,7.0,-999.0,94,0.02,,,0.39,Wunderground v.1.15,2014-01-08 20:00:00,
2014-01-08 15:05:00,66.8,65.0,30.22,ENE,68,9.0,-999.0,94,0.01,,,0.39,Wunderground v.1.15,2014-01-08 20:05:00,
2014-01-08 15:10:00,66.8,65.0,30.22,ENE,68,5.0,-999.0,94,0.02,,,0.39,Wunderground v.1.15,2014-01-08 20:10:00,
2014-01-08 15:15:00,66.9,65.1,30.22,ENE,68,7.0,-999.0,94,0.02,,,0.39,Wunderground v.1.15,2014-01-08 20:15:00,
2014-01-08 15:20:00,66.8,64.7,30.22,ENE,68,8.0,-999.0,93,0.02,,,0.39,Wunderground v.1.15,2014-01-08 20:20:00,
2014-01-08 15:25:00,66.8,65.0,30.21,ENE,68,7.0,-999.0,94,0.02,,,0.39,Wunderground v.1.15,2014-01-08 20:25:00,
2014-01-08 15:30:00,67.0,65.2,30.22,ENE,68,6.0,-999.0,94,0.02,,,0.39,Wunderground v.1.15,2014-01-08 20:30:00,
2014-01-08 15:35:00,66.9,65.1,30.22,ENE,68,8.0,-999.0,94,0.03,,,0.39,Wunderground v.1.15,2014-01-08 20:35:00,
2014-01-08 15:40:00,66.8,65.0,30.22,ENE,68,9.0,-999.0,94,0.02,,,0.39,Wunderground v.1.15,2014-01-08 20:40:00,
2014-01-08 15:45:00,66.7,64.9,30.22,ENE,68,9.0,-999.0,94,0.04,,,0.39,Wunderground v.1.15,2014-01-08 20:45:00,
2014-01-08 15:50:00,66.7,65.2,30.22,NE,45,7.0,-999.0,95,0.05,,,0.39,Wunderground v.1.15,2014-01-08 20:50:00,
2014-01-08 15:55:00,66.4,64.9,30.21,ENE,68,10.0,-999.0,95,0.05,,,0.39,Wunderground v.1.15,2014-01-08 20:55:00,
2014-01-08 16:00:00,66.5,65.0,30.21,ENE,68,8.0,-999.0,95,0.06,,,0.39,Wunderground v.1.15,2014-01-08 21:00:00,
2014-01-08 16:05:00,66.6,65.1,30.22,ENE,68,8.0,-999.0,95,0.06,,,0.39,Wunderground v.1.15,2014-01-08 21:05:00,
2014-01-08 16:10:00,66.5,65.0,30.22,ENE,68,7.0,-999.0,95,0.05,,,0.39,Wunderground v.1.15,2014-01-08 21:10:00,
2014-01-08 16:15:00,66.5,65.0,30.22,ENE,68,7.0,-999.0,95,0.05,,,0.39,Wunderground v.1.15,2014-01-08 21:15:00,
2014-01-08 16:20:00,66.5,65.0,30.22,ENE,68,7.0,-999.0,95,0.05,,,0.39,Wunderground v.1.15,2014-01-08 21:20:00,
2014-01-08 16:25:00,66.7,65.2,30.22,ENE,68,8.0,-999.0,95,0.05,,,0.39,Wunderground v.1.15,2014-01-08 21:25:00,
2014-01-08 16:30:00,66.9,65.4,30.22,ENE,68,6.0,-999.0,95,0.05,,,0.39,Wunderground v.1.15,2014-01-08 21:30:00,
2014-01-08 16:35:00,66.9,65.4,30.21,ENE,68,7.0,-999.0,95,0.04,,,0.39,Wunderground v.1.15,2014-01-08 21:35:00,
2014-01-08 16:40:00,67.0,65.5,30.21,ENE,68,6.0,-999.0,95,0.04,,,0.39,Wunderground v.1.15,2014-01-08 21:40:00,
2014-01-08 16:45:00,67.2,65.4,30.21,ENE,68,7.0,-999.0,94,0.02,,,0.39,Wunderground v.1.15,2014-01-08 21:45:00,
2014-01-08 16:50:00,67.3,65.5,30.21,ENE,68,6.0,-999.0,94,0.01,,,0.39,Wunderground v.1.15,2014-01-08 21:50:00,
2014-01-08 16:55:00,67.6,65.8,30.21,ENE,68,6.0,-999.0,94,0.01,,,0.39,Wunderground v.1.15,2014-01-08 21:55:00,
2014-01-08 17:00:00,67.9,65.8,30.21,ENE,68,5.0,-999.0,93,0.00,,,0.39,Wunderground v.1.15,2014-01-08 22:00:00,
2014-01-08 17:05:00,67.8,65.7,30.21,ENE,68,7.0,-999.0,93,0.00,,,0.39,Wunderground v.1.15,2014-01-08 22:05:00,
2014-01-08 17:10:00,67.9,65.8,30.21,ENE,68,6.0,-999.0,93,0.00,,,0.39,Wunderground v.1.15,2014-01-08 22:10:00,
2014-01-08 17:15:00,68.0,65.6,30.21,ENE,68,7.0,-999.0,92,0.01,,,0.39,Wunderground v.1.15,2014-01-08 22:15:00,
2014-01-08 17:20:00,68.2,65.5,30.21,ENE,68,7.0,-999.0,91,0.01,,,0.39,Wunderground v.1.15,2014-01-08 22:20:00,
2014-01-08 17:25:00,68.4,65.7,30.22,ENE,68,6.0,-999.0,91,0.01,,,0.39,Wunderground v.1.15,2014-01-08 22:25:00,
2014-01-08 17:30:00,68.2,65.2,30.22,ENE,68,6.0,-999.0,90,0.01,,,0.39,Wunderground v.1.15,2014-01-08 22:30:00,
2014-01-08 17:35:00,68.4,65.4,30.22,ENE,68,6.0,-999.0,90,0.01,,,0.39,Wunderground v.1.15,2014-01-08 22:35:00,
2014-01-08 17:40:00,68.6,65.5,30.22,ENE,68,5.0,-999.0,90,0.01,,,0.39,Wunderground v.1.15,2014-01-08 22:40:00,
2014-01-08 17:45:00,68.8,65.7,30.22,ENE,68,5.0,-999.0,90,0.01,,,0.39,Wunderground v.1.15,2014-01-08 22:45:00,
2014-01-08 17:50:00,68.9,65.5,30.22,ENE,68,7.0,-999.0,89,0.01,,,0.39,Wunderground v.1.15,2014-01-08 22:50:00,
2014-01-08 17:55:00,68.9,65.5,30.22,ENE,68,8.0,-999.0,89,0.01,,,0.39,Wunderground v.1.15,2014-01-08 22:55:00,
2014-01-08 18:00:00,68.6,65.5,30.22,ENE,68,6.0,-999.0,90,0.01,,,0.39,Wunderground v.1.15,2014-01-08 23:00:00,
2014-01-08 18:05:00,68.6,65.9,30.22,ENE,68,7.0,-999.0,91,0.01,,,0.39,Wunderground v.1.15,2014-01-08 23:05:00,
2014-01-08 18:10:00,68.5,65.8,30.22,ENE,68,7.0,-999.0,91,0.01,,,0.39,Wunderground v.1.15,2014-01-08 23:10:00,
2014-01-08 18:15:00,68.4,65.7,30.22,ENE,68,6.0,-999.0,91,0.00,,,0.39,Wunderground v.1.15,2014-01-08 23:15:00,
2014-01-08 18:20:00,68.4,65.7,30.22,ENE,68,5.0,-999.0,91,0.00,,,0.39,Wunderground v.1.15,2014-01-08 23:20:00,
2014-01-08 18:25:00,68.2,65.5,30.22,ENE,68,6.0,-999.0,91,0.00,,,0.39,Wunderground v.1.15,2014-01-08 23:25:00,
2014-01-08 18:30:00,68.4,65.7,30.22,ENE,68,7.0,-999.0,91,0.00,,,0.39,Wunderground v.1.15,2014-01-08 23:30:00,
2014-01-08 18:35:00,68.3,65.6,30.22,ENE,68,6.0,-999.0,91,0.01,,,0.39,Wunderground v.1.15,2014-01-08 23:35:00,
2014-01-08 18:40:00,68.3,65.6,30.22,East,90,8.0,-999.0,91,0.01,,,0.39,Wunderground v.1.15,2014-01-08 23:40:00,
2014-01-08 18:45:00,68.5,65.4,30.21,ENE,68,7.0,-999.0,90,0.01,,,0.39,Wunderground v.1.15,2014-01-08 23:45:00,
2014-01-08 18:50:00,68.9,65.5,30.21,ENE,68,7.0,-999.0,89,0.01,,,0.39,Wunderground v.1.15,2014-01-08 23:50:00,
2014-01-08 18:55:00,69.1,65.7,30.22,East,90,7.0,-999.0,89,0.01,,,0.39,Wunderground v.1.15,2014-01-08 23:55:00,
2014-01-08 19:00:00,69.2,65.5,30.22,ENE,68,7.0,-999.0,88,0.01,,,0.39,Wunderground v.1.15,2014-01-09 00:00:00,
2014-01-08 19:05:00,69.2,65.8,30.22,East,90,7.0,-999.0,89,0.01,,,0.39,Wunderground v.1.15,2014-01-09 00:05:00,
2014-01-08 19:10:00,69.1,65.4,30.22,ESE,113,7.0,-999.0,88,0.01,,,0.39,Wunderground v.1.15,2014-01-09 00:10:00,
2014-01-08 19:15:00,69.4,65.7,30.22,ENE,68,7.0,-999.0,88,0.01,,,0.39,Wunderground v.1.15,2014-01-09 00:15:00,
2014-01-08 19:20:00,69.6,65.9,30.22,ENE,68,6.0,-999.0,88,0.01,,,0.39,Wunderground v.1.15,2014-01-09 00:20:00,
2014-01-08 19:25:00,69.9,65.9,30.23,ENE,68,9.0,-999.0,87,0.01,,,0.39,Wunderground v.1.15,2014-01-09 00:25:00,
2014-01-08 19:30:00,69.8,65.8,30.23,ENE,68,7.0,-999.0,87,0.01,,,0.39,Wunderground v.1.15,2014-01-09 00:30:00,
2014-01-08 19:35:00,69.8,66.1,30.23,ENE,68,6.0,-999.0,88,0.00,,,0.39,Wunderground v.1.15,2014-01-09 00:35:00,
2014-01-08 19:40:00,70.0,66.3,30.23,ENE,68,7.0,-999.0,88,0.00,,,0.39,Wunderground v.1.15,2014-01-09 00:40:00,
2014-01-08 19:45:00,70.1,66.4,30.23,ENE,68,8.0,-999.0,88,0.00,,,0.39,Wunderground v.1.15,2014-01-09 00:45:00,
2014-01-08 19:50:00,70.1,66.0,30.23,ENE,68,6.0,-999.0,87,0.00,,,0.39,Wunderground v.1.15,2014-01-09 00:50:00,
2014-01-08 19:55:00,70.3,66.2,30.24,ENE,68,8.0,-999.0,87,0.00,,,0.39,Wunderground v.1.15,2014-01-09 00:55:00,
2014-01-08 20:00:00,70.3,66.2,30.24,ENE,68,6.0,-999.0,87,0.00,,,0.39,Wunderground v.1.15,2014-01-09 01:00:00,
2014-01-08 20:05:00,70.5,66.4,30.24,ENE,68,7.0,-999.0,87,0.00,,,0.39,Wunderground v.1.15,2014-01-09 01:05:00,
2014-01-08 20:10:00,70.4,66.3,30.24,NE,45,6.0,-999.0,87,0.00,,,0.39,Wunderground v.1.15,2014-01-09 01:10:00,
2014-01-08 20:15:00,70.4,66.3,30.25,ENE,68,8.0,-999.0,87,0.00,,,0.39,Wunderground v.1.15,2014-01-09 01:15:00,
2014-01-08 20:20:00,70.3,66.2,30.25,ENE,68,8.0,-999.0,87,0.00,,,0.39,Wunderground v.1.15,2014-01-09 01:20:00,
2014-01-08 20:25:00,70.2,66.1,30.24,ENE,68,7.0,-999.0,87,0.00,,,0.39,Wunderground v.1.15,2014-01-09 01:25:00,
2014-01-08 20:30:00,70.4,66.3,30.25,ENE,68,6.0,-999.0,87,0.00,,,0.39,Wunderground v.1.15,2014-01-09 01:30:00,
2014-01-08 20:35:00,70.5,66.4,30.25,ENE,68,6.0,-999.0,87,0.00,,,0.39,Wunderground v.1.15,2014-01-09 01:35:00,
2014-01-08 20:40:00,70.6,66.5,30.25,ENE,68,6.0,-999.0,87,0.00,,,0.39,Wunderground v.1.15,2014-01-09 01:40:00,
2014-01-08 20:45:00,70.7,66.6,30.25,ENE,68,7.0,-999.0,87,0.00,,,0.39,Wunderground v.1.15,2014-01-09 01:45:00,
2014-01-08 20:50:00,70.8,66.7,30.25,ENE,68,8.0,-999.0,87,0.00,,,0.39,Wunderground v.1.15,2014-01-09 01:50:00,
2014-01-08 20:55:00,70.9,66.8,30.25,East,90,6.0,-999.0,87,0.00,,,0.39,Wunderground v.1.15,2014-01-09 01:55:00,
2014-01-08 21:00:00,70.9,66.8,30.25,East,90,6.0,-999.0,87,0.00,,,0.39,Wunderground v.1.15,2014-01-09 02:00:00,
2014-01-08 21:05:00,70.9,66.8,30.24,ENE,68,6.0,-999.0,87,0.00,,,0.39,Wunderground v.1.15,2014-01-09 02:05:00,
2014-01-08 21:10:00,70.8,66.7,30.24,ENE,68,6.0,-999.0,87,0.00,,,0.39,Wunderground v.1.15,2014-01-09 02:10:00,
2014-01-08 21:15:00,70.7,66.6,30.25,ENE,68,7.0,-999.0,87,0.00,,,0.39,Wunderground v.1.15,2014-01-09 02:15:00,
2014-01-08 21:20:00,70.5,66.8,30.24,ENE,68,5.0,-999.0,88,0.00,,,0.39,Wunderground v.1.15,2014-01-09 02:20:00,
2014-01-08 21:25:00,70.7,67.0,30.25,ENE,68,6.0,-999.0,88,0.00,,,0.39,Wunderground v.1.15,2014-01-09 02:25:00,
2014-01-08 21:30:00,70.8,66.7,30.25,NE,45,6.0,-999.0,87,0.00,,,0.39,Wunderground v.1.15,2014-01-09 02:30:00,
2014-01-08 21:35:00,70.8,66.7,30.25,ENE,68,6.0,-999.0,87,0.00,,,0.39,Wunderground v.1.15,2014-01-09 02:35:00,
2014-01-08 21:40:00,70.9,66.8,30.25,ENE,68,5.0,-999.0,87,0.00,,,0.39,Wunderground v.1.15,2014-01-09 02:40:00,
2014-01-08 21:45:00,70.8,66.7,30.25,ENE,68,7.0,-999.0,87,0.00,,,0.39,Wunderground v.1.15,2014-01-09 02:45:00,
2014-01-08 21:50:00,70.8,66.7,30.25,East,90,7.0,-999.0,87,0.00,,,0.39,Wunderground v.1.15,2014-01-09 02:50:00,
2014-01-08 21:55:00,71.0,66.9,30.25,ENE,68,5.0,-999.0,87,0.00,,,0.39,Wunderground v.1.15,2014-01-09 02:55:00,
2014-01-08 22:00:00,71.0,66.9,30.25,ENE,68,6.0,-999.0,87,0.00,,,0.39,Wunderground v.1.15,2014-01-09 03:00:00,
2014-01-08 22:05:00,71.1,67.0,30.25,NE,45,7.0,-999.0,87,0.00,,,0.39,Wunderground v.1.15,2014-01-09 03:05:00,
2014-01-08 22:10:00,71.0,66.9,30.25,East,90,6.0,-999.0,87,0.00,,,0.39,Wunderground v.1.15,2014-01-09 03:10:00,
2014-01-08 22:15:00,71.0,66.9,30.25,ENE,68,7.0,-999.0,87,0.00,,,0.39,Wunderground v.1.15,2014-01-09 03:15:00,
2014-01-08 22:20:00,70.9,66.8,30.25,NE,45,7.0,-999.0,87,0.00,,,0.39,Wunderground v.1.15,2014-01-09 03:20:00,
2014-01-08 22:25:00,70.9,66.8,30.24,ENE,68,7.0,-999.0,87,0.00,,,0.39,Wunderground v.1.15,2014-01-09 03:25:00,
2014-01-08 22:30:00,70.9,66.8,30.24,ENE,68,7.0,-999.0,87,0.00,,,0.39,Wunderground v.1.15,2014-01-09 03:30:00,
2014-01-08 22:35:00,71.1,67.0,30.24,ENE,68,7.0,-999.0,87,0.00,,,0.39,Wunderground v.1.15,2014-01-09 03:35:00,
2014-01-08 22:40:00,71.2,67.1,30.24,ENE,68,6.0,-999.0,87,0.00,,,0.39,Wunderground v.1.15,2014-01-09 03:40:00,
2014-01-08 22:45:00,71.2,67.1,30.24,ENE,68,7.0,-999.0,87,0.00,,,0.39,Wunderground v.1.15,2014-01-09 03:45:00,
2014-01-08 22:50:00,71.1,67.0,30.24,ENE,68,5.0,-999.0,87,0.00,,,0.39,Wunderground v.1.15,2014-01-09 03:50:00,
2014-01-08 22:55:00,71.1,67.0,30.24,ENE,68,6.0,-999.0,87,0.00,,,0.39,Wunderground v.1.15,2014-01-09 03:55:00,
2014-01-08 23:00:00,71.0,67.3,30.24,NE,45,7.0,-999.0,88,0.00,,,0.39,Wunderground v.1.15,2014-01-09 04:00:00,
2014-01-08 23:05:00,71.1,67.4,30.23,ENE,68,6.0,-999.0,88,0.00,,,0.39,Wunderground v.1.15,2014-01-09 04:05:00,
2014-01-08 23:10:00,71.2,67.5,30.23,East,90,6.0,-999.0,88,0.00,,,0.39,Wunderground v.1.15,2014-01-09 04:10:00,
2014-01-08 23:15:00,71.2,67.1,30.23,ENE,68,6.0,-999.0,87,0.00,,,0.39,Wunderground v.1.15,2014-01-09 04:15:00,
2014-01-08 23:20:00,71.2,67.1,30.23,ENE,68,7.0,-999.0,87,0.00,,,0.39,Wunderground v.1.15,2014-01-09 04:20:00,
2014-01-08 23:25:00,71.2,67.5,30.22,NE,45,8.0,-999.0,88,0.00,,,0.39,Wunderground v.1.15,2014-01-09 04:25:00,
2014-01-08 23:30:00,71.1,67.4,30.22,NE,45,6.0,-999.0,88,0.00,,,0.39,Wunderground v.1.15,2014-01-09 04:30:00,
2014-01-08 23:35:00,71.1,67.7,30.22,ENE,68,7.0,-999.0,89,0.00,,,0.39,Wunderground v.1.15,2014-01-09 04:35:00,
2014-01-08 23:40:00,71.0,67.6,30.22,East,90,7.0,-999.0,89,0.00,,,0.39,Wunderground v.1.15,2014-01-09 04:40:00,
2014-01-08 23:45:00,70.9,67.5,30.22,NE,45,7.0,-999.0,89,0.00,,,0.39,Wunderground v.1.15,2014-01-09 04:45:00,
2014-01-08 23:50:00,70.9,67.5,30.22,ENE,68,7.0,-999.0,89,0.00,,,0.39,Wunderground v.1.15,2014-01-09 04:50:00,
2014-01-08 23:55:00,70.9,67.5,30.22,East,90,7.0,-999.0,89,0.00,,,0.39,Wunderground v.1.15,2014-01-09 04:55:00,